sensor_id;sensor_type;location;lat;lon;timestamp;P1;durP1;ratioP1;P2;durP2;ratioP2
74465;SDS011;62916;50.044;15.938;2023-05-29T00:00:28;3.40;;;2.40;;
74465;SDS011;62916;50.044;15.938;2023-05-29T00:02:59;2.40;;;2.20;;
74465;SDS011;62916;50.044;15.938;2023-05-29T00:08:02;2.00;;;1.20;;
74465;SDS011;62916;50.044;15.938;2023-05-29T00:10:34;2.80;;;1.70;;
74465;SDS011;62916;50.044;15.938;2023-05-29T00:13:05;2.30;;;1.50;;
74465;SDS011;62916;50.044;15.938;2023-05-29T00:15:36;2.10;;;1.50;;
74465;SDS011;62916;50.044;15.938;2023-05-29T00:18:06;2.50;;;1.40;;
74465;SDS011;62916;50.044;15.938;2023-05-29T00:20:37;1.70;;;1.40;;
74465;SDS011;62916;50.044;15.938;2023-05-29T00:23:08;3.60;;;1.60;;
74465;SDS011;62916;50.044;15.938;2023-05-29T00:25:39;1.80;;;1.50;;
74465;SDS011;62916;50.044;15.938;2023-05-29T00:28:10;2.20;;;1.50;;
74465;SDS011;62916;50.044;15.938;2023-05-29T00:30:41;2.10;;;1.60;;
74465;SDS011;62916;50.044;15.938;2023-05-29T00:33:13;3.10;;;1.50;;
74465;SDS011;62916;50.044;15.938;2023-05-29T00:35:46;1.90;;;1.60;;
74465;SDS011;62916;50.044;15.938;2023-05-29T00:38:17;1.90;;;1.70;;
74465;SDS011;62916;50.044;15.938;2023-05-29T00:40:48;1.90;;;1.30;;
74465;SDS011;62916;50.044;15.938;2023-05-29T00:43:19;2.80;;;2.10;;
74465;SDS011;62916;50.044;15.938;2023-05-29T00:45:50;1.50;;;1.20;;
74465;SDS011;62916;50.044;15.938;2023-05-29T00:48:21;2.30;;;1.20;;
74465;SDS011;62916;50.044;15.938;2023-05-29T00:50:53;1.80;;;1.60;;
74465;SDS011;62916;50.044;15.938;2023-05-29T00:53:24;1.80;;;1.30;;
74465;SDS011;62916;50.044;15.938;2023-05-29T00:55:56;2.70;;;1.30;;
74465;SDS011;62916;50.044;15.938;2023-05-29T00:58:28;2.10;;;1.20;;
74465;SDS011;62916;50.044;15.938;2023-05-29T01:01:00;1.80;;;1.30;;
74465;SDS011;62916;50.044;15.938;2023-05-29T01:03:31;2.60;;;1.50;;
74465;SDS011;62916;50.044;15.938;2023-05-29T01:06:03;1.80;;;1.40;;
74465;SDS011;62916;50.044;15.938;2023-05-29T01:08:35;1.70;;;1.50;;
74465;SDS011;62916;50.044;15.938;2023-05-29T01:11:08;1.80;;;1.30;;
74465;SDS011;62916;50.044;15.938;2023-05-29T01:13:49;1.40;;;1.20;;
74465;SDS011;62916;50.044;15.938;2023-05-29T01:18:57;3.00;;;1.30;;
74465;SDS011;62916;50.044;15.938;2023-05-29T01:21:42;3.00;;;1.90;;
74465;SDS011;62916;50.044;15.938;2023-05-29T01:24:29;2.20;;;1.30;;
74465;SDS011;62916;50.044;15.938;2023-05-29T01:27:06;1.60;;;1.30;;
74465;SDS011;62916;50.044;15.938;2023-05-29T01:29:39;1.50;;;1.10;;
74465;SDS011;62916;50.044;15.938;2023-05-29T01:32:12;1.60;;;1.20;;
74465;SDS011;62916;50.044;15.938;2023-05-29T01:34:43;2.30;;;1.40;;
74465;SDS011;62916;50.044;15.938;2023-05-29T01:37:14;1.70;;;1.60;;
74465;SDS011;62916;50.044;15.938;2023-05-29T01:39:45;1.60;;;1.20;;
74465;SDS011;62916;50.044;15.938;2023-05-29T01:42:16;1.30;;;1.20;;
74465;SDS011;62916;50.044;15.938;2023-05-29T01:44:47;2.00;;;1.40;;
74465;SDS011;62916;50.044;15.938;2023-05-29T01:47:18;2.20;;;1.70;;
74465;SDS011;62916;50.044;15.938;2023-05-29T01:49:50;1.70;;;1.60;;
74465;SDS011;62916;50.044;15.938;2023-05-29T01:52:23;1.50;;;1.30;;
74465;SDS011;62916;50.044;15.938;2023-05-29T01:54:54;2.00;;;1.50;;
74465;SDS011;62916;50.044;15.938;2023-05-29T01:57:25;3.10;;;1.50;;
74465;SDS011;62916;50.044;15.938;2023-05-29T01:59:57;1.90;;;1.40;;
74465;SDS011;62916;50.044;15.938;2023-05-29T02:02:28;1.40;;;1.30;;
74465;SDS011;62916;50.044;15.938;2023-05-29T02:04:59;2.00;;;1.20;;
74465;SDS011;62916;50.044;15.938;2023-05-29T02:07:30;1.70;;;1.20;;
74465;SDS011;62916;50.044;15.938;2023-05-29T02:10:01;2.00;;;1.30;;
74465;SDS011;62916;50.044;15.938;2023-05-29T02:12:32;3.00;;;1.50;;
74465;SDS011;62916;50.044;15.938;2023-05-29T02:15:03;2.10;;;1.50;;
74465;SDS011;62916;50.044;15.938;2023-05-29T02:17:35;1.80;;;1.70;;
74465;SDS011;62916;50.044;15.938;2023-05-29T02:20:07;2.20;;;1.50;;
74465;SDS011;62916;50.044;15.938;2023-05-29T02:22:39;1.90;;;1.40;;
74465;SDS011;62916;50.044;15.938;2023-05-29T02:25:10;2.00;;;1.50;;
74465;SDS011;62916;50.044;15.938;2023-05-29T02:27:41;1.80;;;1.30;;
74465;SDS011;62916;50.044;15.938;2023-05-29T02:30:12;1.90;;;1.10;;
74465;SDS011;62916;50.044;15.938;2023-05-29T02:32:43;2.20;;;1.40;;
74465;SDS011;62916;50.044;15.938;2023-05-29T02:35:14;2.70;;;1.50;;
74465;SDS011;62916;50.044;15.938;2023-05-29T02:37:49;6.60;;;1.60;;
74465;SDS011;62916;50.044;15.938;2023-05-29T02:40:20;2.00;;;1.30;;
74465;SDS011;62916;50.044;15.938;2023-05-29T02:42:51;2.40;;;1.40;;
74465;SDS011;62916;50.044;15.938;2023-05-29T02:45:22;4.30;;;1.40;;
74465;SDS011;62916;50.044;15.938;2023-05-29T02:47:53;4.60;;;1.50;;
74465;SDS011;62916;50.044;15.938;2023-05-29T02:50:24;3.90;;;1.50;;
74465;SDS011;62916;50.044;15.938;2023-05-29T02:52:55;5.50;;;1.50;;
74465;SDS011;62916;50.044;15.938;2023-05-29T02:55:26;2.30;;;1.00;;
74465;SDS011;62916;50.044;15.938;2023-05-29T03:00:29;2.30;;;1.20;;
74465;SDS011;62916;50.044;15.938;2023-05-29T03:03:00;6.00;;;1.30;;
74465;SDS011;62916;50.044;15.938;2023-05-29T03:05:31;3.20;;;1.40;;
74465;SDS011;62916;50.044;15.938;2023-05-29T03:08:02;8.50;;;2.30;;
74465;SDS011;62916;50.044;15.938;2023-05-29T03:10:32;10.90;;;2.00;;
74465;SDS011;62916;50.044;15.938;2023-05-29T03:13:03;16.40;;;2.50;;
74465;SDS011;62916;50.044;15.938;2023-05-29T03:15:35;6.50;;;1.80;;
74465;SDS011;62916;50.044;15.938;2023-05-29T03:18:06;14.70;;;2.70;;
74465;SDS011;62916;50.044;15.938;2023-05-29T03:20:36;12.40;;;2.50;;
74465;SDS011;62916;50.044;15.938;2023-05-29T03:23:07;16.90;;;2.50;;
74465;SDS011;62916;50.044;15.938;2023-05-29T03:25:38;11.60;;;2.20;;
74465;SDS011;62916;50.044;15.938;2023-05-29T03:28:09;7.90;;;2.70;;
74465;SDS011;62916;50.044;15.938;2023-05-29T03:30:40;4.90;;;1.60;;
74465;SDS011;62916;50.044;15.938;2023-05-29T03:33:11;8.70;;;1.70;;
74465;SDS011;62916;50.044;15.938;2023-05-29T03:35:42;8.20;;;2.00;;
74465;SDS011;62916;50.044;15.938;2023-05-29T03:38:13;11.10;;;2.30;;
74465;SDS011;62916;50.044;15.938;2023-05-29T03:40:44;9.20;;;2.10;;
74465;SDS011;62916;50.044;15.938;2023-05-29T03:43:14;8.10;;;1.70;;
74465;SDS011;62916;50.044;15.938;2023-05-29T03:45:46;11.60;;;2.00;;
74465;SDS011;62916;50.044;15.938;2023-05-29T03:48:16;11.90;;;1.90;;
74465;SDS011;62916;50.044;15.938;2023-05-29T03:50:47;8.30;;;2.00;;
74465;SDS011;62916;50.044;15.938;2023-05-29T03:53:18;7.10;;;1.80;;
74465;SDS011;62916;50.044;15.938;2023-05-29T03:55:49;5.10;;;1.70;;
74465;SDS011;62916;50.044;15.938;2023-05-29T03:58:20;7.90;;;1.50;;
74465;SDS011;62916;50.044;15.938;2023-05-29T04:00:51;6.60;;;1.60;;
74465;SDS011;62916;50.044;15.938;2023-05-29T04:03:22;3.60;;;1.50;;
74465;SDS011;62916;50.044;15.938;2023-05-29T04:05:53;7.80;;;1.80;;
74465;SDS011;62916;50.044;15.938;2023-05-29T04:08:24;5.20;;;1.40;;
74465;SDS011;62916;50.044;15.938;2023-05-29T04:10:55;3.20;;;1.40;;
74465;SDS011;62916;50.044;15.938;2023-05-29T04:13:26;5.40;;;1.50;;
74465;SDS011;62916;50.044;15.938;2023-05-29T04:15:57;7.00;;;1.80;;
74465;SDS011;62916;50.044;15.938;2023-05-29T04:18:28;5.10;;;1.20;;
74465;SDS011;62916;50.044;15.938;2023-05-29T04:20:59;4.10;;;1.50;;
74465;SDS011;62916;50.044;15.938;2023-05-29T04:23:30;4.70;;;1.70;;
74465;SDS011;62916;50.044;15.938;2023-05-29T04:26:01;5.80;;;1.40;;
74465;SDS011;62916;50.044;15.938;2023-05-29T04:28:33;6.20;;;1.70;;
74465;SDS011;62916;50.044;15.938;2023-05-29T04:31:05;5.70;;;1.40;;
74465;SDS011;62916;50.044;15.938;2023-05-29T04:33:36;3.60;;;1.20;;
74465;SDS011;62916;50.044;15.938;2023-05-29T04:36:07;5.60;;;1.50;;
74465;SDS011;62916;50.044;15.938;2023-05-29T04:38:38;6.00;;;1.50;;
74465;SDS011;62916;50.044;15.938;2023-05-29T04:41:09;5.40;;;1.60;;
74465;SDS011;62916;50.044;15.938;2023-05-29T04:43:40;3.40;;;1.20;;
74465;SDS011;62916;50.044;15.938;2023-05-29T04:46:11;6.30;;;1.50;;
74465;SDS011;62916;50.044;15.938;2023-05-29T04:48:43;3.40;;;1.40;;
74465;SDS011;62916;50.044;15.938;2023-05-29T04:51:14;2.20;;;1.70;;
74465;SDS011;62916;50.044;15.938;2023-05-29T04:56:17;3.40;;;1.30;;
74465;SDS011;62916;50.044;15.938;2023-05-29T04:58:48;2.50;;;1.80;;
74465;SDS011;62916;50.044;15.938;2023-05-29T05:01:19;3.70;;;1.60;;
74465;SDS011;62916;50.044;15.938;2023-05-29T05:03:51;3.70;;;1.60;;
74465;SDS011;62916;50.044;15.938;2023-05-29T05:06:24;3.50;;;1.60;;
74465;SDS011;62916;50.044;15.938;2023-05-29T05:08:55;2.10;;;1.20;;
74465;SDS011;62916;50.044;15.938;2023-05-29T05:11:25;4.20;;;1.40;;
74465;SDS011;62916;50.044;15.938;2023-05-29T05:13:56;3.60;;;1.40;;
74465;SDS011;62916;50.044;15.938;2023-05-29T05:16:27;5.00;;;1.80;;
74465;SDS011;62916;50.044;15.938;2023-05-29T05:18:58;3.10;;;1.20;;
74465;SDS011;62916;50.044;15.938;2023-05-29T05:21:29;1.80;;;1.20;;
74465;SDS011;62916;50.044;15.938;2023-05-29T05:24:01;3.70;;;1.50;;
74465;SDS011;62916;50.044;15.938;2023-05-29T05:26:32;2.70;;;1.30;;
74465;SDS011;62916;50.044;15.938;2023-05-29T05:29:03;1.70;;;1.10;;
74465;SDS011;62916;50.044;15.938;2023-05-29T05:31:34;2.50;;;1.20;;
74465;SDS011;62916;50.044;15.938;2023-05-29T05:34:05;2.30;;;1.20;;
74465;SDS011;62916;50.044;15.938;2023-05-29T05:36:36;2.60;;;1.10;;
74465;SDS011;62916;50.044;15.938;2023-05-29T05:39:07;2.90;;;1.10;;
74465;SDS011;62916;50.044;15.938;2023-05-29T05:41:37;3.70;;;1.10;;
74465;SDS011;62916;50.044;15.938;2023-05-29T05:44:08;2.10;;;1.00;;
74465;SDS011;62916;50.044;15.938;2023-05-29T05:46:39;2.70;;;1.20;;
74465;SDS011;62916;50.044;15.938;2023-05-29T05:49:10;4.40;;;1.40;;
74465;SDS011;62916;50.044;15.938;2023-05-29T05:51:41;2.10;;;1.30;;
74465;SDS011;62916;50.044;15.938;2023-05-29T05:54:11;3.20;;;1.30;;
74465;SDS011;62916;50.044;15.938;2023-05-29T05:56:43;1.80;;;1.20;;
74465;SDS011;62916;50.044;15.938;2023-05-29T05:59:13;2.60;;;1.50;;
74465;SDS011;62916;50.044;15.938;2023-05-29T06:01:44;2.80;;;1.00;;
74465;SDS011;62916;50.044;15.938;2023-05-29T06:04:15;1.70;;;1.00;;
74465;SDS011;62916;50.044;15.938;2023-05-29T06:06:46;5.60;;;1.40;;
74465;SDS011;62916;50.044;15.938;2023-05-29T06:09:17;3.20;;;1.50;;
74465;SDS011;62916;50.044;15.938;2023-05-29T06:11:50;3.70;;;1.80;;
74465;SDS011;62916;50.044;15.938;2023-05-29T06:14:21;2.10;;;1.20;;
74465;SDS011;62916;50.044;15.938;2023-05-29T06:16:52;1.30;;;1.00;;
74465;SDS011;62916;50.044;15.938;2023-05-29T06:19:24;2.80;;;1.30;;
74465;SDS011;62916;50.044;15.938;2023-05-29T06:21:55;3.20;;;1.20;;
74465;SDS011;62916;50.044;15.938;2023-05-29T06:24:26;2.70;;;1.20;;
74465;SDS011;62916;50.044;15.938;2023-05-29T06:26:57;2.00;;;1.10;;
74465;SDS011;62916;50.044;15.938;2023-05-29T06:29:29;1.80;;;1.10;;
74465;SDS011;62916;50.044;15.938;2023-05-29T06:32:00;2.40;;;1.20;;
74465;SDS011;62916;50.044;15.938;2023-05-29T06:34:31;2.90;;;1.30;;
74465;SDS011;62916;50.044;15.938;2023-05-29T06:37:02;2.00;;;1.10;;
74465;SDS011;62916;50.044;15.938;2023-05-29T06:39:33;2.60;;;1.30;;
74465;SDS011;62916;50.044;15.938;2023-05-29T06:42:04;3.50;;;1.30;;
74465;SDS011;62916;50.044;15.938;2023-05-29T06:44:36;2.70;;;1.40;;
74465;SDS011;62916;50.044;15.938;2023-05-29T06:47:07;2.40;;;1.40;;
74465;SDS011;62916;50.044;15.938;2023-05-29T06:49:38;2.20;;;1.10;;
74465;SDS011;62916;50.044;15.938;2023-05-29T06:52:09;1.50;;;1.10;;
74465;SDS011;62916;50.044;15.938;2023-05-29T06:54:40;2.50;;;1.30;;
74465;SDS011;62916;50.044;15.938;2023-05-29T06:57:11;3.40;;;1.20;;
74465;SDS011;62916;50.044;15.938;2023-05-29T06:59:42;1.70;;;1.10;;
74465;SDS011;62916;50.044;15.938;2023-05-29T07:02:13;1.90;;;1.30;;
74465;SDS011;62916;50.044;15.938;2023-05-29T07:04:44;2.20;;;1.60;;
74465;SDS011;62916;50.044;15.938;2023-05-29T07:07:14;2.30;;;1.30;;
74465;SDS011;62916;50.044;15.938;2023-05-29T07:09:46;2.30;;;1.20;;
74465;SDS011;62916;50.044;15.938;2023-05-29T07:12:16;2.30;;;1.20;;
74465;SDS011;62916;50.044;15.938;2023-05-29T07:14:48;2.60;;;1.30;;
74465;SDS011;62916;50.044;15.938;2023-05-29T07:17:18;2.20;;;1.20;;
74465;SDS011;62916;50.044;15.938;2023-05-29T07:19:49;4.40;;;1.40;;
74465;SDS011;62916;50.044;15.938;2023-05-29T07:22:22;1.50;;;1.20;;
74465;SDS011;62916;50.044;15.938;2023-05-29T07:24:53;2.40;;;1.20;;
74465;SDS011;62916;50.044;15.938;2023-05-29T07:27:24;3.40;;;1.20;;
74465;SDS011;62916;50.044;15.938;2023-05-29T07:29:54;1.40;;;1.10;;
74465;SDS011;62916;50.044;15.938;2023-05-29T07:32:25;2.10;;;1.10;;
74465;SDS011;62916;50.044;15.938;2023-05-29T07:34:56;3.00;;;1.30;;
74465;SDS011;62916;50.044;15.938;2023-05-29T07:37:27;1.90;;;1.20;;
74465;SDS011;62916;50.044;15.938;2023-05-29T07:39:59;1.80;;;1.20;;
74465;SDS011;62916;50.044;15.938;2023-05-29T07:42:32;1.80;;;0.90;;
74465;SDS011;62916;50.044;15.938;2023-05-29T07:45:03;2.40;;;1.40;;
74465;SDS011;62916;50.044;15.938;2023-05-29T07:47:35;1.70;;;1.20;;
74465;SDS011;62916;50.044;15.938;2023-05-29T07:50:07;2.90;;;1.30;;
74465;SDS011;62916;50.044;15.938;2023-05-29T07:52:40;1.20;;;0.90;;
74465;SDS011;62916;50.044;15.938;2023-05-29T07:55:12;2.50;;;1.30;;
74465;SDS011;62916;50.044;15.938;2023-05-29T07:57:43;2.00;;;1.40;;
74465;SDS011;62916;50.044;15.938;2023-05-29T08:00:15;2.40;;;1.30;;
74465;SDS011;62916;50.044;15.938;2023-05-29T08:02:46;1.70;;;1.30;;
74465;SDS011;62916;50.044;15.938;2023-05-29T08:05:18;2.10;;;1.20;;
74465;SDS011;62916;50.044;15.938;2023-05-29T08:07:49;2.30;;;1.20;;
74465;SDS011;62916;50.044;15.938;2023-05-29T08:10:20;1.10;;;1.00;;
74465;SDS011;62916;50.044;15.938;2023-05-29T08:12:51;2.70;;;1.10;;
74465;SDS011;62916;50.044;15.938;2023-05-29T08:15:22;2.40;;;1.20;;
74465;SDS011;62916;50.044;15.938;2023-05-29T08:17:54;3.40;;;1.60;;
74465;SDS011;62916;50.044;15.938;2023-05-29T08:20:25;1.60;;;1.10;;
74465;SDS011;62916;50.044;15.938;2023-05-29T08:22:56;1.90;;;1.20;;
74465;SDS011;62916;50.044;15.938;2023-05-29T08:25:27;1.30;;;1.20;;
74465;SDS011;62916;50.044;15.938;2023-05-29T08:27:58;1.40;;;1.20;;
74465;SDS011;62916;50.044;15.938;2023-05-29T08:30:29;2.10;;;1.20;;
74465;SDS011;62916;50.044;15.938;2023-05-29T08:33:00;2.70;;;1.40;;
74465;SDS011;62916;50.044;15.938;2023-05-29T08:35:31;1.60;;;1.10;;
74465;SDS011;62916;50.044;15.938;2023-05-29T08:38:02;1.30;;;1.00;;
74465;SDS011;62916;50.044;15.938;2023-05-29T08:40:33;1.10;;;1.00;;
74465;SDS011;62916;50.044;15.938;2023-05-29T08:43:10;1.70;;;1.00;;
74465;SDS011;62916;50.044;15.938;2023-05-29T08:45:44;2.60;;;1.30;;
74465;SDS011;62916;50.044;15.938;2023-05-29T08:48:16;1.60;;;1.20;;
74465;SDS011;62916;50.044;15.938;2023-05-29T08:50:52;1.50;;;1.10;;
74465;SDS011;62916;50.044;15.938;2023-05-29T08:53:25;1.80;;;1.30;;
74465;SDS011;62916;50.044;15.938;2023-05-29T08:55:56;2.00;;;1.80;;
74465;SDS011;62916;50.044;15.938;2023-05-29T08:58:28;1.10;;;0.80;;
74465;SDS011;62916;50.044;15.938;2023-05-29T09:00:59;2.20;;;1.20;;
74465;SDS011;62916;50.044;15.938;2023-05-29T09:03:31;2.20;;;0.90;;
74465;SDS011;62916;50.044;15.938;2023-05-29T09:06:06;1.20;;;1.10;;
74465;SDS011;62916;50.044;15.938;2023-05-29T09:08:37;2.10;;;1.10;;
74465;SDS011;62916;50.044;15.938;2023-05-29T09:11:09;1.40;;;1.10;;
74465;SDS011;62916;50.044;15.938;2023-05-29T09:13:40;1.80;;;1.40;;
74465;SDS011;62916;50.044;15.938;2023-05-29T09:16:11;1.60;;;1.10;;
74465;SDS011;62916;50.044;15.938;2023-05-29T09:18:42;1.60;;;1.20;;
74465;SDS011;62916;50.044;15.938;2023-05-29T09:21:24;1.00;;;0.80;;
74465;SDS011;62916;50.044;15.938;2023-05-29T09:24:01;1.10;;;1.00;;
74465;SDS011;62916;50.044;15.938;2023-05-29T09:26:33;2.30;;;0.90;;
74465;SDS011;62916;50.044;15.938;2023-05-29T09:29:04;1.40;;;1.10;;
74465;SDS011;62916;50.044;15.938;2023-05-29T09:31:38;1.80;;;0.90;;
74465;SDS011;62916;50.044;15.938;2023-05-29T09:34:16;2.10;;;1.00;;
74465;SDS011;62916;50.044;15.938;2023-05-29T09:36:47;1.80;;;1.00;;
74465;SDS011;62916;50.044;15.938;2023-05-29T09:39:19;1.40;;;1.00;;
74465;SDS011;62916;50.044;15.938;2023-05-29T09:41:50;3.70;;;1.40;;
74465;SDS011;62916;50.044;15.938;2023-05-29T09:44:24;1.50;;;1.00;;
74465;SDS011;62916;50.044;15.938;2023-05-29T09:46:58;3.60;;;1.40;;
74465;SDS011;62916;50.044;15.938;2023-05-29T09:49:30;1.30;;;1.00;;
74465;SDS011;62916;50.044;15.938;2023-05-29T09:52:02;1.30;;;1.10;;
74465;SDS011;62916;50.044;15.938;2023-05-29T09:54:35;1.90;;;1.30;;
74465;SDS011;62916;50.044;15.938;2023-05-29T09:57:07;2.40;;;1.20;;
74465;SDS011;62916;50.044;15.938;2023-05-29T09:59:39;1.90;;;0.90;;
74465;SDS011;62916;50.044;15.938;2023-05-29T10:02:19;2.80;;;1.10;;
74465;SDS011;62916;50.044;15.938;2023-05-29T10:04:50;2.00;;;1.00;;
74465;SDS011;62916;50.044;15.938;2023-05-29T10:07:22;1.30;;;1.00;;
74465;SDS011;62916;50.044;15.938;2023-05-29T10:09:59;2.10;;;1.00;;
74465;SDS011;62916;50.044;15.938;2023-05-29T10:12:31;1.50;;;1.00;;
74465;SDS011;62916;50.044;15.938;2023-05-29T10:15:09;1.20;;;0.90;;
74465;SDS011;62916;50.044;15.938;2023-05-29T10:17:44;2.70;;;1.40;;
74465;SDS011;62916;50.044;15.938;2023-05-29T10:20:19;3.00;;;1.20;;
74465;SDS011;62916;50.044;15.938;2023-05-29T10:22:51;1.50;;;1.10;;
74465;SDS011;62916;50.044;15.938;2023-05-29T10:25:25;2.20;;;1.10;;
74465;SDS011;62916;50.044;15.938;2023-05-29T10:27:59;1.50;;;1.00;;
74465;SDS011;62916;50.044;15.938;2023-05-29T10:30:33;1.80;;;1.00;;
74465;SDS011;62916;50.044;15.938;2023-05-29T10:33:29;2.40;;;1.10;;
74465;SDS011;62916;50.044;15.938;2023-05-29T10:36:12;2.10;;;1.30;;
74465;SDS011;62916;50.044;15.938;2023-05-29T10:38:45;1.50;;;1.00;;
74465;SDS011;62916;50.044;15.938;2023-05-29T10:41:29;1.50;;;1.00;;
74465;SDS011;62916;50.044;15.938;2023-05-29T10:47:09;1.00;;;0.80;;
74465;SDS011;62916;50.044;15.938;2023-05-29T10:49:40;1.50;;;0.90;;
74465;SDS011;62916;50.044;15.938;2023-05-29T10:54:54;1.80;;;0.80;;
74465;SDS011;62916;50.044;15.938;2023-05-29T10:57:25;2.60;;;1.10;;
74465;SDS011;62916;50.044;15.938;2023-05-29T11:00:01;1.20;;;0.80;;
74465;SDS011;62916;50.044;15.938;2023-05-29T11:02:40;2.10;;;1.00;;
74465;SDS011;62916;50.044;15.938;2023-05-29T11:05:24;1.30;;;0.80;;
74465;SDS011;62916;50.044;15.938;2023-05-29T11:07:59;1.50;;;1.10;;
74465;SDS011;62916;50.044;15.938;2023-05-29T11:10:42;1.90;;;1.20;;
74465;SDS011;62916;50.044;15.938;2023-05-29T11:13:24;1.60;;;1.20;;
74465;SDS011;62916;50.044;15.938;2023-05-29T11:16:13;1.50;;;1.00;;
74465;SDS011;62916;50.044;15.938;2023-05-29T11:18:49;1.00;;;0.90;;
74465;SDS011;62916;50.044;15.938;2023-05-29T11:21:25;2.50;;;1.10;;
74465;SDS011;62916;50.044;15.938;2023-05-29T11:24:02;1.50;;;1.00;;
74465;SDS011;62916;50.044;15.938;2023-05-29T11:26:36;2.10;;;1.10;;
74465;SDS011;62916;50.044;15.938;2023-05-29T11:29:07;1.10;;;1.00;;
74465;SDS011;62916;50.044;15.938;2023-05-29T11:31:41;1.90;;;1.10;;
74465;SDS011;62916;50.044;15.938;2023-05-29T11:34:14;1.50;;;1.10;;
74465;SDS011;62916;50.044;15.938;2023-05-29T11:36:45;1.20;;;1.10;;
74465;SDS011;62916;50.044;15.938;2023-05-29T11:39:17;1.10;;;0.90;;
74465;SDS011;62916;50.044;15.938;2023-05-29T11:41:51;2.20;;;1.10;;
74465;SDS011;62916;50.044;15.938;2023-05-29T11:44:25;1.90;;;1.10;;
74465;SDS011;62916;50.044;15.938;2023-05-29T11:47:02;1.30;;;1.00;;
74465;SDS011;62916;50.044;15.938;2023-05-29T11:49:35;1.60;;;0.80;;
74465;SDS011;62916;50.044;15.938;2023-05-29T11:52:08;1.60;;;1.30;;
74465;SDS011;62916;50.044;15.938;2023-05-29T11:54:42;1.00;;;0.90;;
74465;SDS011;62916;50.044;15.938;2023-05-29T11:57:18;1.50;;;1.00;;
74465;SDS011;62916;50.044;15.938;2023-05-29T11:59:50;0.60;;;0.60;;
74465;SDS011;62916;50.044;15.938;2023-05-29T12:02:26;1.30;;;1.00;;
74465;SDS011;62916;50.044;15.938;2023-05-29T12:05:01;1.50;;;1.10;;
74465;SDS011;62916;50.044;15.938;2023-05-29T12:10:11;1.10;;;0.80;;
74465;SDS011;62916;50.044;15.938;2023-05-29T12:12:46;1.20;;;1.00;;
74465;SDS011;62916;50.044;15.938;2023-05-29T12:15:19;1.40;;;1.10;;
74465;SDS011;62916;50.044;15.938;2023-05-29T12:17:50;1.30;;;1.10;;
74465;SDS011;62916;50.044;15.938;2023-05-29T12:20:23;1.90;;;1.10;;
74465;SDS011;62916;50.044;15.938;2023-05-29T12:22:58;1.60;;;1.10;;
74465;SDS011;62916;50.044;15.938;2023-05-29T12:25:30;1.70;;;1.10;;
74465;SDS011;62916;50.044;15.938;2023-05-29T12:28:04;0.90;;;0.80;;
74465;SDS011;62916;50.044;15.938;2023-05-29T12:30:37;1.70;;;1.20;;
74465;SDS011;62916;50.044;15.938;2023-05-29T12:33:10;1.40;;;1.30;;
74465;SDS011;62916;50.044;15.938;2023-05-29T12:36:07;1.60;;;1.00;;
74465;SDS011;62916;50.044;15.938;2023-05-29T12:38:48;1.90;;;0.90;;
74465;SDS011;62916;50.044;15.938;2023-05-29T12:41:24;1.70;;;1.10;;
74465;SDS011;62916;50.044;15.938;2023-05-29T12:43:56;1.60;;;1.00;;
74465;SDS011;62916;50.044;15.938;2023-05-29T12:46:27;1.60;;;0.90;;
74465;SDS011;62916;50.044;15.938;2023-05-29T12:49:12;0.90;;;0.90;;
74465;SDS011;62916;50.044;15.938;2023-05-29T12:51:44;1.30;;;1.00;;
74465;SDS011;62916;50.044;15.938;2023-05-29T12:54:16;0.90;;;0.70;;
74465;SDS011;62916;50.044;15.938;2023-05-29T12:56:47;1.10;;;0.90;;
74465;SDS011;62916;50.044;15.938;2023-05-29T12:59:19;1.40;;;1.10;;
74465;SDS011;62916;50.044;15.938;2023-05-29T13:01:50;2.80;;;1.00;;
74465;SDS011;62916;50.044;15.938;2023-05-29T13:04:21;1.20;;;0.90;;
74465;SDS011;62916;50.044;15.938;2023-05-29T13:06:52;1.40;;;0.70;;
74465;SDS011;62916;50.044;15.938;2023-05-29T13:09:23;2.10;;;0.90;;
74465;SDS011;62916;50.044;15.938;2023-05-29T13:11:54;0.80;;;0.80;;
74465;SDS011;62916;50.044;15.938;2023-05-29T13:14:25;1.00;;;0.90;;
74465;SDS011;62916;50.044;15.938;2023-05-29T13:16:55;2.00;;;1.20;;
74465;SDS011;62916;50.044;15.938;2023-05-29T13:19:26;1.80;;;1.10;;
74465;SDS011;62916;50.044;15.938;2023-05-29T13:21:57;1.20;;;0.80;;
74465;SDS011;62916;50.044;15.938;2023-05-29T13:24:28;1.50;;;1.40;;
74465;SDS011;62916;50.044;15.938;2023-05-29T13:26:59;1.10;;;0.90;;
74465;SDS011;62916;50.044;15.938;2023-05-29T13:29:30;1.30;;;1.20;;
74465;SDS011;62916;50.044;15.938;2023-05-29T13:32:01;1.10;;;0.80;;
74465;SDS011;62916;50.044;15.938;2023-05-29T13:34:33;0.90;;;0.80;;
74465;SDS011;62916;50.044;15.938;2023-05-29T13:37:04;0.80;;;0.70;;
74465;SDS011;62916;50.044;15.938;2023-05-29T13:39:35;0.80;;;0.80;;
74465;SDS011;62916;50.044;15.938;2023-05-29T13:42:06;1.20;;;0.80;;
74465;SDS011;62916;50.044;15.938;2023-05-29T13:44:38;1.50;;;1.10;;
74465;SDS011;62916;50.044;15.938;2023-05-29T13:47:09;1.00;;;0.90;;
74465;SDS011;62916;50.044;15.938;2023-05-29T13:49:40;1.60;;;0.90;;
74465;SDS011;62916;50.044;15.938;2023-05-29T13:52:11;1.00;;;0.90;;
74465;SDS011;62916;50.044;15.938;2023-05-29T13:54:45;1.70;;;1.00;;
74465;SDS011;62916;50.044;15.938;2023-05-29T13:57:17;1.20;;;0.90;;
74465;SDS011;62916;50.044;15.938;2023-05-29T13:59:48;1.60;;;0.90;;
74465;SDS011;62916;50.044;15.938;2023-05-29T14:02:19;1.30;;;1.10;;
74465;SDS011;62916;50.044;15.938;2023-05-29T14:04:51;1.40;;;1.00;;
74465;SDS011;62916;50.044;15.938;2023-05-29T14:07:21;1.90;;;1.70;;
74465;SDS011;62916;50.044;15.938;2023-05-29T14:09:53;1.30;;;0.90;;
74465;SDS011;62916;50.044;15.938;2023-05-29T14:12:24;1.10;;;1.00;;
74465;SDS011;62916;50.044;15.938;2023-05-29T14:14:55;1.50;;;0.90;;
74465;SDS011;62916;50.044;15.938;2023-05-29T14:17:26;1.10;;;0.80;;
74465;SDS011;62916;50.044;15.938;2023-05-29T14:19:57;1.10;;;1.00;;
74465;SDS011;62916;50.044;15.938;2023-05-29T14:22:32;0.90;;;0.70;;
74465;SDS011;62916;50.044;15.938;2023-05-29T14:25:05;1.70;;;0.80;;
74465;SDS011;62916;50.044;15.938;2023-05-29T14:27:36;1.00;;;0.90;;
74465;SDS011;62916;50.044;15.938;2023-05-29T14:30:08;0.80;;;0.80;;
74465;SDS011;62916;50.044;15.938;2023-05-29T14:32:40;1.10;;;1.00;;
74465;SDS011;62916;50.044;15.938;2023-05-29T14:35:11;1.20;;;0.70;;
74465;SDS011;62916;50.044;15.938;2023-05-29T14:37:42;1.60;;;0.90;;
74465;SDS011;62916;50.044;15.938;2023-05-29T14:40:13;1.00;;;0.90;;
74465;SDS011;62916;50.044;15.938;2023-05-29T14:42:45;1.50;;;1.40;;
74465;SDS011;62916;50.044;15.938;2023-05-29T14:45:17;2.20;;;0.80;;
74465;SDS011;62916;50.044;15.938;2023-05-29T14:47:48;0.80;;;0.80;;
74465;SDS011;62916;50.044;15.938;2023-05-29T14:50:19;1.00;;;0.90;;
74465;SDS011;62916;50.044;15.938;2023-05-29T14:52:50;1.30;;;0.70;;
74465;SDS011;62916;50.044;15.938;2023-05-29T14:55:21;1.60;;;1.00;;
74465;SDS011;62916;50.044;15.938;2023-05-29T14:57:52;2.30;;;1.10;;
74465;SDS011;62916;50.044;15.938;2023-05-29T15:00:23;0.90;;;0.80;;
74465;SDS011;62916;50.044;15.938;2023-05-29T15:02:54;1.00;;;0.90;;
74465;SDS011;62916;50.044;15.938;2023-05-29T15:05:27;1.20;;;1.00;;
74465;SDS011;62916;50.044;15.938;2023-05-29T15:07:58;0.80;;;0.70;;
74465;SDS011;62916;50.044;15.938;2023-05-29T15:10:29;1.00;;;0.90;;
74465;SDS011;62916;50.044;15.938;2023-05-29T15:13:00;1.60;;;1.00;;
74465;SDS011;62916;50.044;15.938;2023-05-29T15:15:34;1.00;;;0.90;;
74465;SDS011;62916;50.044;15.938;2023-05-29T15:18:15;1.60;;;1.00;;
74465;SDS011;62916;50.044;15.938;2023-05-29T15:20:46;1.50;;;1.00;;